Depesze METAR z lotnisk oddalonych od Rybnika do 200 kilometrów

LKMT - Ostrava/Mosnov, Czech Republic
Distance from station: SSW 55km
Updated: Sat, 23/09/2017 16:30 CEST
Rain drizzle, Overcast
Rain drizzle, Overcast
 Wind from SSW
Wind: SSW 11 km/h
Temperature: 11°C
Dew Point: 10°C
Humidity: 94%
Barometer: 1018 hPa
Summary: Rain Drizzle
Clouds: Overcast
Visibility: 2 km
Cloud details: Partly Cloudy 183 m
Overcast 244 m
2017/09/23 14:30 LKMT 231430Z 21006KT 2000 RADZ SCT006 OVC008 11/10 Q1018 NOSIG
EPKT - Katowice/Pyrzowi, Poland
Distance from station: NE 58km
Updated: Sat, 23/09/2017 16:30 CEST
Light drizzle, Mist, Overcast
Light drizzle, Mist, Overcast
 Wind from WNW
Wind: WNW 9 km/h
Temperature: 13°C
Dew Point: 12°C
Humidity: 94%
Barometer: 1016 hPa
Summary: Light drizzle, Mist
Clouds: Overcast
Visibility: 3 km
Cloud details: Mostly Cloudy 61 m
Overcast 91 m
2017/09/23 14:30 EPKT 231430Z 30005KT 3200 -DZ BR BKN002 OVC003 13/12 Q1016
 
EPKK - Krakow/Balice, Poland
Distance from station: E 91km
Updated: Sat, 23/09/2017 16:30 CEST
Light drizzle, Mist, Overcast
Light drizzle, Mist, Overcast
 Wind from SW
Wind: SW 9 km/h
Temperature: 12°C
Dew Point: 11°C
Humidity: 94%
Barometer: 1016 hPa
Summary: Light drizzle, Mist
Clouds: Overcast
Visibility: 4 km
Cloud details: Mostly Cloudy 91 m
Overcast 152 m
2017/09/23 14:30 EPKK 231430Z 22005KT 4000 -DZ BR BKN003 OVC005 12/11 Q1016
LZZI - Zilina, Slovakia
Distance from station: S 95km
Updated: Sat, 23/09/2017 16:30 CEST
Overcast
Overcast
 Wind from WNW
Wind: WNW 6 km/h
Temperature: 11°C
Dew Point: 9°C
Humidity: 88%
Barometer: 1018 hPa
Clouds: Overcast
Visibility: 10 km
Cloud details: Few Clouds 183 m
Overcast 701 m
2017/09/23 14:30 LZZI 231430Z 29003KT 260V330 9999 FEW006 OVC023 11/09 Q1018
 
LKKU - Kunovice, Czech Republic
Distance from station: SW 139km
Updated: Fri, 22/09/2017 16:00 CEST
NOT Current
Few Clouds
Few Clouds
 Wind from N
Wind: N 7 km/h
Temperature: 16°C
Dew Point: 9°C
Humidity: 63%
Barometer: 1020 hPa
Clouds: Few Clouds
Visibility: 10 km
Cloud details: Few Clouds 1402 m
2017/09/22 14:00 LKKU 221400Z 35004KT 9999 FEW046 16/09 Q1020
EPWR - Wroclaw/Strachow, Poland
Distance from station: NW 163km
Updated: Sat, 23/09/2017 16:30 CEST
Light rain, Overcast
Light rain, Overcast
 Wind from WNW
Wind: WNW 24 km/h
Temperature: 12°C
Dew Point: 11°C
Humidity: 94%
Barometer: 1019 hPa
Summary: Light Rain
Clouds: Overcast
Visibility: 10 km
Cloud details: Few Clouds 91 m
Overcast 152 m
2017/09/23 14:30 EPWR 231430Z 30013KT 9999 -RA FEW003 OVC005 12/11 Q1019
 
LZSL - Sliac, Slovakia
Distance from station: SSE 168km
Updated: Sat, 23/09/2017 16:30 CEST
Overcast
Overcast
 Wind from WSW
Wind: WSW 13 km/h
Temperature: 12°C
Dew Point: 9°C
Humidity: 82%
Barometer: 1017 hPa
Clouds: Overcast
Visibility: 10 km
Cloud details: Few Clouds 549 m
Overcast 1128 m
2017/09/23 14:30 LZSL 231430Z 25007KT 9999 FEW018 OVC037 12/09 Q1017
LZTT - Poprad/Tatry, Slovakia
Distance from station: SE 168km
Updated: Sat, 23/09/2017 16:30 CEST
Overcast
Overcast
 Wind from WSW
Wind: WSW 19 km/h
Temperature: 10°C
Wind Chill: 7°C
Dew Point: 8°C
Humidity: 88%
Barometer: 1016 hPa
Clouds: Overcast
Visibility: 10 km
Cloud details: Few Clouds 366 m
Mostly Cloudy 610 m
Overcast 1219 m
2017/09/23 14:30 LZTT 231430Z 25010KT 9999 FEW012 BKN020 OVC040 10/08 Q1016 NOSIG
 
LKTB - Brno/Turany, Czech Republic
Distance from station: SW 170km
Updated: Sat, 23/09/2017 16:30 CEST
Light rain, Few clouds
Light rain, Few clouds
 Wind from WNW
Wind: WNW 19 km/h
Temperature: 12°C
Dew Point: 10°C
Humidity: 88%
Barometer: 1019 hPa
Summary: Light Rain
Clouds: Few Clouds
Visibility: 6 km
Cloud details: Few Clouds 335 m
2017/09/23 14:30 LKTB 231430Z 29010KT 6000 -RA FEW011 12/10 Q1019 NOSIG
LZPP - Piestany, Slovakia
Distance from station: SSW 171km
Updated: Sat, 23/09/2017 16:30 CEST
Light rain, Overcast
Light rain, Overcast
 Wind from NNW
Wind: NNW 7 km/h
Temperature: 12°C
Dew Point: 10°C
Humidity: 88%
Barometer: 1019 hPa
Summary: Light Rain
Clouds: Overcast
Visibility: 9 km
Cloud details: Few Clouds 152 m
Mostly Cloudy 518 m
Overcast 914 m
2017/09/23 14:30 LZPP 231430Z 34004KT 9000 -RA FEW005 BKN017 OVC030 12/10 Q1019
 
EPLL - Lodz/Lublinek, Poland
Distance from station: NNE 191km
Updated: Sat, 23/09/2017 16:30 CEST
Mostly Cloudy
Mostly Cloudy
 Wind from NNE
Wind: NNE 11 km/h
Temperature: 15°C
Dew Point: 14°C
Humidity: 94%
Barometer: 1017 hPa
Clouds: Mostly Cloudy
Visibility: 10 km
Cloud details: Mostly Cloudy 213 m
2017/09/23 14:30 EPLL 231430Z 03006KT 9999 BKN007 15/14 Q1017
LKPD - Pardubice, Czech Republic
Distance from station: W 200km
Updated: Sat, 23/09/2017 15:00 CEST
NOT Current
Light rain, Overcast
Light rain, Overcast
 Wind from WNW
Wind: WNW 13 km/h
Temperature: 13°C
Dew Point: 10°C
Humidity: 82%
Barometer: 1021 hPa
Summary: Light Rain
Clouds: Overcast
Visibility: 7 km
Cloud details: Partly Cloudy 1189 m
Overcast 1829 m
2017/09/23 13:00 LKPD 231300Z 30007KT 7000 -RA SCT039 OVC060 13/10 Q1021 NOSIG RMK WHT WHT

Metar display script from Saratoga-Weather.org